sensor_id;sensor_type;location;lat;lon;timestamp;P1;durP1;ratioP1;P2;durP2;ratioP2
25409;SDS011;13339;50.840;4.346;2023-07-13T00:00:10;8.37;;;2.83;;
25409;SDS011;13339;50.840;4.346;2023-07-13T00:02:36;9.67;;;2.67;;
25409;SDS011;13339;50.840;4.346;2023-07-13T00:05:02;9.17;;;3.23;;
25409;SDS011;13339;50.840;4.346;2023-07-13T00:07:28;9.47;;;2.47;;
25409;SDS011;13339;50.840;4.346;2023-07-13T00:09:54;13.20;;;2.70;;
25409;SDS011;13339;50.840;4.346;2023-07-13T00:12:41;12.17;;;2.80;;
25409;SDS011;13339;50.840;4.346;2023-07-13T00:15:13;9.90;;;2.90;;
25409;SDS011;13339;50.840;4.346;2023-07-13T00:17:41;7.70;;;2.40;;
25409;SDS011;13339;50.840;4.346;2023-07-13T00:20:09;10.87;;;3.00;;
25409;SDS011;13339;50.840;4.346;2023-07-13T00:22:36;7.77;;;2.50;;
25409;SDS011;13339;50.840;4.346;2023-07-13T00:25:02;8.53;;;2.60;;
25409;SDS011;13339;50.840;4.346;2023-07-13T00:27:28;9.20;;;2.73;;
25409;SDS011;13339;50.840;4.346;2023-07-13T00:29:56;13.80;;;3.00;;
25409;SDS011;13339;50.840;4.346;2023-07-13T00:32:22;16.37;;;2.83;;
25409;SDS011;13339;50.840;4.346;2023-07-13T00:34:50;14.20;;;3.43;;
25409;SDS011;13339;50.840;4.346;2023-07-13T00:37:16;14.90;;;3.10;;
25409;SDS011;13339;50.840;4.346;2023-07-13T00:39:42;13.13;;;3.03;;
25409;SDS011;13339;50.840;4.346;2023-07-13T00:42:07;12.10;;;2.77;;
25409;SDS011;13339;50.840;4.346;2023-07-13T00:44:33;11.03;;;2.70;;
25409;SDS011;13339;50.840;4.346;2023-07-13T00:46:59;9.83;;;2.70;;
25409;SDS011;13339;50.840;4.346;2023-07-13T00:49:25;12.87;;;2.93;;
25409;SDS011;13339;50.840;4.346;2023-07-13T00:51:58;13.37;;;3.53;;
25409;SDS011;13339;50.840;4.346;2023-07-13T00:54:31;12.57;;;3.10;;
25409;SDS011;13339;50.840;4.346;2023-07-13T00:57:01;8.43;;;2.57;;
25409;SDS011;13339;50.840;4.346;2023-07-13T00:59:30;8.80;;;2.63;;
25409;SDS011;13339;50.840;4.346;2023-07-13T01:01:57;10.10;;;2.90;;
25409;SDS011;13339;50.840;4.346;2023-07-13T01:04:23;11.93;;;2.93;;
25409;SDS011;13339;50.840;4.346;2023-07-13T01:06:50;7.57;;;2.53;;
25409;SDS011;13339;50.840;4.346;2023-07-13T01:09:16;14.03;;;2.97;;
25409;SDS011;13339;50.840;4.346;2023-07-13T01:11:43;14.57;;;2.90;;
25409;SDS011;13339;50.840;4.346;2023-07-13T01:14:10;14.33;;;3.40;;
25409;SDS011;13339;50.840;4.346;2023-07-13T01:16:35;8.57;;;2.27;;
25409;SDS011;13339;50.840;4.346;2023-07-13T01:19:03;10.20;;;2.67;;
25409;SDS011;13339;50.840;4.346;2023-07-13T01:21:50;11.50;;;2.47;;
25409;SDS011;13339;50.840;4.346;2023-07-13T01:24:17;13.20;;;2.80;;
25409;SDS011;13339;50.840;4.346;2023-07-13T01:26:43;7.27;;;2.93;;
25409;SDS011;13339;50.840;4.346;2023-07-13T01:29:08;11.13;;;3.10;;
25409;SDS011;13339;50.840;4.346;2023-07-13T01:31:34;11.70;;;2.77;;
25409;SDS011;13339;50.840;4.346;2023-07-13T01:34:00;9.80;;;2.83;;
25409;SDS011;13339;50.840;4.346;2023-07-13T01:36:25;12.47;;;3.27;;
25409;SDS011;13339;50.840;4.346;2023-07-13T01:38:51;10.93;;;3.23;;
25409;SDS011;13339;50.840;4.346;2023-07-13T01:41:17;9.50;;;2.90;;
25409;SDS011;13339;50.840;4.346;2023-07-13T01:43:42;7.27;;;2.33;;
25409;SDS011;13339;50.840;4.346;2023-07-13T01:46:09;8.27;;;2.77;;
25409;SDS011;13339;50.840;4.346;2023-07-13T01:48:35;10.20;;;3.43;;
25409;SDS011;13339;50.840;4.346;2023-07-13T01:51:00;8.37;;;2.70;;
25409;SDS011;13339;50.840;4.346;2023-07-13T01:53:26;14.60;;;3.13;;
25409;SDS011;13339;50.840;4.346;2023-07-13T01:55:51;13.87;;;3.43;;
25409;SDS011;13339;50.840;4.346;2023-07-13T01:58:18;10.00;;;2.30;;
25409;SDS011;13339;50.840;4.346;2023-07-13T02:00:43;13.27;;;2.80;;
25409;SDS011;13339;50.840;4.346;2023-07-13T02:03:09;9.23;;;3.13;;
25409;SDS011;13339;50.840;4.346;2023-07-13T02:05:34;19.93;;;3.23;;
25409;SDS011;13339;50.840;4.346;2023-07-13T02:08:01;9.17;;;3.00;;
25409;SDS011;13339;50.840;4.346;2023-07-13T02:10:26;16.43;;;4.17;;
25409;SDS011;13339;50.840;4.346;2023-07-13T02:12:53;14.63;;;3.43;;
25409;SDS011;13339;50.840;4.346;2023-07-13T02:15:19;11.57;;;3.57;;
25409;SDS011;13339;50.840;4.346;2023-07-13T02:17:44;16.77;;;3.50;;
25409;SDS011;13339;50.840;4.346;2023-07-13T02:20:10;12.33;;;3.63;;
25409;SDS011;13339;50.840;4.346;2023-07-13T02:22:36;13.73;;;3.53;;
25409;SDS011;13339;50.840;4.346;2023-07-13T02:25:01;15.00;;;3.27;;
25409;SDS011;13339;50.840;4.346;2023-07-13T02:27:27;12.60;;;3.60;;
25409;SDS011;13339;50.840;4.346;2023-07-13T02:29:53;11.87;;;3.40;;
25409;SDS011;13339;50.840;4.346;2023-07-13T02:32:18;10.03;;;3.43;;
25409;SDS011;13339;50.840;4.346;2023-07-13T02:34:44;12.23;;;3.37;;
25409;SDS011;13339;50.840;4.346;2023-07-13T02:37:09;14.00;;;3.37;;
25409;SDS011;13339;50.840;4.346;2023-07-13T02:39:35;14.80;;;3.60;;
25409;SDS011;13339;50.840;4.346;2023-07-13T02:42:01;10.43;;;3.10;;
25409;SDS011;13339;50.840;4.346;2023-07-13T02:44:26;13.53;;;4.03;;
25409;SDS011;13339;50.840;4.346;2023-07-13T02:46:52;10.37;;;3.70;;
25409;SDS011;13339;50.840;4.346;2023-07-13T02:49:18;11.73;;;3.37;;
25409;SDS011;13339;50.840;4.346;2023-07-13T02:51:43;10.80;;;3.07;;
25409;SDS011;13339;50.840;4.346;2023-07-13T02:54:09;8.57;;;2.90;;
25409;SDS011;13339;50.840;4.346;2023-07-13T02:56:36;7.73;;;3.23;;
25409;SDS011;13339;50.840;4.346;2023-07-13T02:59:04;16.33;;;3.70;;
25409;SDS011;13339;50.840;4.346;2023-07-13T03:01:29;11.50;;;3.37;;
25409;SDS011;13339;50.840;4.346;2023-07-13T03:03:55;15.03;;;3.43;;
25409;SDS011;13339;50.840;4.346;2023-07-13T03:06:20;17.57;;;4.00;;
25409;SDS011;13339;50.840;4.346;2023-07-13T03:08:47;12.00;;;3.90;;
25409;SDS011;13339;50.840;4.346;2023-07-13T03:11:15;15.73;;;3.53;;
25409;SDS011;13339;50.840;4.346;2023-07-13T03:13:43;11.33;;;3.27;;
25409;SDS011;13339;50.840;4.346;2023-07-13T03:16:09;12.33;;;3.47;;
25409;SDS011;13339;50.840;4.346;2023-07-13T03:18:36;9.53;;;3.20;;
25409;SDS011;13339;50.840;4.346;2023-07-13T03:21:02;14.47;;;4.27;;
25409;SDS011;13339;50.840;4.346;2023-07-13T03:23:28;15.43;;;3.07;;
25409;SDS011;13339;50.840;4.346;2023-07-13T03:26:05;11.60;;;3.73;;
25409;SDS011;13339;50.840;4.346;2023-07-13T03:28:35;14.63;;;3.73;;
25409;SDS011;13339;50.840;4.346;2023-07-13T03:31:08;9.17;;;3.77;;
25409;SDS011;13339;50.840;4.346;2023-07-13T03:33:37;17.00;;;3.50;;
25409;SDS011;13339;50.840;4.346;2023-07-13T03:36:03;9.13;;;3.30;;
25409;SDS011;13339;50.840;4.346;2023-07-13T03:38:30;15.03;;;3.87;;
25409;SDS011;13339;50.840;4.346;2023-07-13T03:40:56;14.93;;;4.63;;
25409;SDS011;13339;50.840;4.346;2023-07-13T03:43:21;16.00;;;3.43;;
25409;SDS011;13339;50.840;4.346;2023-07-13T03:45:47;12.00;;;3.57;;
25409;SDS011;13339;50.840;4.346;2023-07-13T03:48:13;12.93;;;3.93;;
25409;SDS011;13339;50.840;4.346;2023-07-13T03:50:39;15.33;;;4.40;;
25409;SDS011;13339;50.840;4.346;2023-07-13T03:53:05;19.43;;;4.30;;
25409;SDS011;13339;50.840;4.346;2023-07-13T03:55:30;14.67;;;3.77;;
25409;SDS011;13339;50.840;4.346;2023-07-13T03:58:00;11.20;;;3.13;;
25409;SDS011;13339;50.840;4.346;2023-07-13T04:00:46;15.57;;;4.47;;
25409;SDS011;13339;50.840;4.346;2023-07-13T04:03:11;22.10;;;4.17;;
25409;SDS011;13339;50.840;4.346;2023-07-13T04:05:37;12.30;;;3.90;;
25409;SDS011;13339;50.840;4.346;2023-07-13T04:08:05;13.70;;;4.00;;
25409;SDS011;13339;50.840;4.346;2023-07-13T04:10:31;12.50;;;3.60;;
25409;SDS011;13339;50.840;4.346;2023-07-13T04:12:56;17.90;;;3.63;;
25409;SDS011;13339;50.840;4.346;2023-07-13T04:15:22;18.77;;;3.73;;
25409;SDS011;13339;50.840;4.346;2023-07-13T04:17:47;14.47;;;3.73;;
25409;SDS011;13339;50.840;4.346;2023-07-13T04:20:13;17.77;;;3.93;;
25409;SDS011;13339;50.840;4.346;2023-07-13T04:22:38;16.57;;;4.17;;
25409;SDS011;13339;50.840;4.346;2023-07-13T04:25:04;17.53;;;3.97;;
25409;SDS011;13339;50.840;4.346;2023-07-13T04:27:30;17.60;;;4.10;;
25409;SDS011;13339;50.840;4.346;2023-07-13T04:29:56;18.03;;;4.00;;
25409;SDS011;13339;50.840;4.346;2023-07-13T04:32:21;14.60;;;3.97;;
25409;SDS011;13339;50.840;4.346;2023-07-13T04:34:47;17.30;;;4.00;;
25409;SDS011;13339;50.840;4.346;2023-07-13T04:37:17;14.97;;;3.80;;
25409;SDS011;13339;50.840;4.346;2023-07-13T04:39:42;16.53;;;4.07;;
25409;SDS011;13339;50.840;4.346;2023-07-13T04:42:08;14.37;;;3.80;;
25409;SDS011;13339;50.840;4.346;2023-07-13T04:44:34;18.50;;;4.60;;
25409;SDS011;13339;50.840;4.346;2023-07-13T04:46:59;20.03;;;4.93;;
25409;SDS011;13339;50.840;4.346;2023-07-13T04:49:25;19.67;;;3.97;;
25409;SDS011;13339;50.840;4.346;2023-07-13T04:51:50;12.03;;;3.97;;
25409;SDS011;13339;50.840;4.346;2023-07-13T04:54:16;21.53;;;4.17;;
25409;SDS011;13339;50.840;4.346;2023-07-13T04:56:42;16.30;;;4.20;;
25409;SDS011;13339;50.840;4.346;2023-07-13T04:59:07;14.30;;;4.03;;
25409;SDS011;13339;50.840;4.346;2023-07-13T05:01:33;23.00;;;4.50;;
25409;SDS011;13339;50.840;4.346;2023-07-13T05:03:59;9.17;;;3.93;;
25409;SDS011;13339;50.840;4.346;2023-07-13T05:06:24;17.63;;;4.50;;
25409;SDS011;13339;50.840;4.346;2023-07-13T05:08:50;18.83;;;3.93;;
25409;SDS011;13339;50.840;4.346;2023-07-13T05:11:17;14.27;;;4.23;;
25409;SDS011;13339;50.840;4.346;2023-07-13T05:13:43;15.33;;;4.30;;
25409;SDS011;13339;50.840;4.346;2023-07-13T05:16:09;17.47;;;4.40;;
25409;SDS011;13339;50.840;4.346;2023-07-13T05:18:35;18.47;;;4.27;;
25409;SDS011;13339;50.840;4.346;2023-07-13T05:21:05;17.23;;;3.70;;
25409;SDS011;13339;50.840;4.346;2023-07-13T05:23:32;18.43;;;4.37;;
25409;SDS011;13339;50.840;4.346;2023-07-13T05:25:59;17.93;;;5.03;;
25409;SDS011;13339;50.840;4.346;2023-07-13T05:28:25;18.10;;;3.70;;
25409;SDS011;13339;50.840;4.346;2023-07-13T05:30:52;18.20;;;4.20;;
25409;SDS011;13339;50.840;4.346;2023-07-13T05:33:18;14.70;;;3.90;;
25409;SDS011;13339;50.840;4.346;2023-07-13T05:35:45;13.80;;;4.17;;
25409;SDS011;13339;50.840;4.346;2023-07-13T05:38:10;19.07;;;4.37;;
25409;SDS011;13339;50.840;4.346;2023-07-13T05:40:36;14.00;;;3.90;;
25409;SDS011;13339;50.840;4.346;2023-07-13T05:43:02;22.63;;;4.40;;
25409;SDS011;13339;50.840;4.346;2023-07-13T05:45:28;19.80;;;4.20;;
25409;SDS011;13339;50.840;4.346;2023-07-13T05:47:54;17.87;;;4.00;;
25409;SDS011;13339;50.840;4.346;2023-07-13T05:50:19;18.30;;;4.20;;
25409;SDS011;13339;50.840;4.346;2023-07-13T05:52:46;13.17;;;3.90;;
25409;SDS011;13339;50.840;4.346;2023-07-13T05:55:12;17.77;;;3.97;;
25409;SDS011;13339;50.840;4.346;2023-07-13T05:57:38;23.63;;;4.97;;
25409;SDS011;13339;50.840;4.346;2023-07-13T06:00:04;14.93;;;5.00;;
25409;SDS011;13339;50.840;4.346;2023-07-13T06:02:30;15.37;;;4.13;;
25409;SDS011;13339;50.840;4.346;2023-07-13T06:04:55;18.17;;;4.60;;
25409;SDS011;13339;50.840;4.346;2023-07-13T06:07:21;18.23;;;4.23;;
25409;SDS011;13339;50.840;4.346;2023-07-13T06:09:46;15.40;;;3.97;;
25409;SDS011;13339;50.840;4.346;2023-07-13T06:12:12;18.53;;;4.37;;
25409;SDS011;13339;50.840;4.346;2023-07-13T06:14:37;13.67;;;3.80;;
25409;SDS011;13339;50.840;4.346;2023-07-13T06:17:03;20.40;;;4.27;;
25409;SDS011;13339;50.840;4.346;2023-07-13T06:19:29;21.13;;;4.10;;
25409;SDS011;13339;50.840;4.346;2023-07-13T06:21:55;18.93;;;4.43;;
25409;SDS011;13339;50.840;4.346;2023-07-13T06:24:21;17.93;;;4.87;;
25409;SDS011;13339;50.840;4.346;2023-07-13T06:26:47;17.17;;;4.27;;
25409;SDS011;13339;50.840;4.346;2023-07-13T06:29:12;18.80;;;4.37;;
25409;SDS011;13339;50.840;4.346;2023-07-13T06:31:38;14.60;;;4.27;;
25409;SDS011;13339;50.840;4.346;2023-07-13T06:34:04;16.03;;;4.57;;
25409;SDS011;13339;50.840;4.346;2023-07-13T06:36:29;16.33;;;4.33;;
25409;SDS011;13339;50.840;4.346;2023-07-13T06:38:55;21.23;;;4.13;;
25409;SDS011;13339;50.840;4.346;2023-07-13T06:41:20;15.53;;;4.27;;
25409;SDS011;13339;50.840;4.346;2023-07-13T06:43:47;19.40;;;4.00;;
25409;SDS011;13339;50.840;4.346;2023-07-13T06:46:12;16.47;;;3.90;;
25409;SDS011;13339;50.840;4.346;2023-07-13T06:48:38;11.30;;;3.90;;
25409;SDS011;13339;50.840;4.346;2023-07-13T06:51:04;20.53;;;3.90;;
25409;SDS011;13339;50.840;4.346;2023-07-13T06:53:29;18.67;;;4.40;;
25409;SDS011;13339;50.840;4.346;2023-07-13T06:55:55;17.33;;;3.97;;
25409;SDS011;13339;50.840;4.346;2023-07-13T06:58:21;14.60;;;4.27;;
25409;SDS011;13339;50.840;4.346;2023-07-13T07:00:49;13.77;;;3.80;;
25409;SDS011;13339;50.840;4.346;2023-07-13T07:03:16;23.00;;;4.57;;
25409;SDS011;13339;50.840;4.346;2023-07-13T07:05:42;15.10;;;4.10;;
25409;SDS011;13339;50.840;4.346;2023-07-13T07:08:07;16.13;;;3.77;;
25409;SDS011;13339;50.840;4.346;2023-07-13T07:10:33;16.30;;;4.03;;
25409;SDS011;13339;50.840;4.346;2023-07-13T07:12:59;17.37;;;4.90;;
25409;SDS011;13339;50.840;4.346;2023-07-13T07:15:25;12.83;;;3.93;;
25409;SDS011;13339;50.840;4.346;2023-07-13T07:17:52;11.90;;;3.80;;
25409;SDS011;13339;50.840;4.346;2023-07-13T07:20:17;16.27;;;3.97;;
25409;SDS011;13339;50.840;4.346;2023-07-13T07:22:43;14.67;;;3.50;;
25409;SDS011;13339;50.840;4.346;2023-07-13T07:25:08;10.13;;;3.57;;
25409;SDS011;13339;50.840;4.346;2023-07-13T07:27:34;13.27;;;3.83;;
25409;SDS011;13339;50.840;4.346;2023-07-13T07:30:00;10.17;;;3.67;;
25409;SDS011;13339;50.840;4.346;2023-07-13T07:32:26;15.10;;;3.63;;
25409;SDS011;13339;50.840;4.346;2023-07-13T07:34:53;13.13;;;3.43;;
25409;SDS011;13339;50.840;4.346;2023-07-13T07:37:19;14.87;;;4.17;;
25409;SDS011;13339;50.840;4.346;2023-07-13T07:39:44;13.67;;;3.43;;
25409;SDS011;13339;50.840;4.346;2023-07-13T07:42:10;13.77;;;3.63;;
25409;SDS011;13339;50.840;4.346;2023-07-13T07:44:37;13.60;;;3.67;;
25409;SDS011;13339;50.840;4.346;2023-07-13T07:47:03;10.33;;;3.67;;
25409;SDS011;13339;50.840;4.346;2023-07-13T07:49:29;13.23;;;4.07;;
25409;SDS011;13339;50.840;4.346;2023-07-13T07:51:54;13.23;;;4.13;;
25409;SDS011;13339;50.840;4.346;2023-07-13T07:54:20;14.40;;;3.67;;
25409;SDS011;13339;50.840;4.346;2023-07-13T07:56:45;15.97;;;4.07;;
25409;SDS011;13339;50.840;4.346;2023-07-13T07:59:11;14.87;;;3.70;;
25409;SDS011;13339;50.840;4.346;2023-07-13T08:01:37;9.43;;;3.00;;
25409;SDS011;13339;50.840;4.346;2023-07-13T08:04:02;11.53;;;3.43;;
25409;SDS011;13339;50.840;4.346;2023-07-13T08:06:28;11.60;;;4.10;;
25409;SDS011;13339;50.840;4.346;2023-07-13T08:08:53;14.10;;;3.50;;
25409;SDS011;13339;50.840;4.346;2023-07-13T08:11:20;11.67;;;3.53;;
25409;SDS011;13339;50.840;4.346;2023-07-13T08:13:46;14.80;;;3.33;;
25409;SDS011;13339;50.840;4.346;2023-07-13T08:16:12;11.83;;;3.33;;
25409;SDS011;13339;50.840;4.346;2023-07-13T08:18:38;10.40;;;3.53;;
25409;SDS011;13339;50.840;4.346;2023-07-13T08:21:04;12.50;;;3.73;;
25409;SDS011;13339;50.840;4.346;2023-07-13T08:23:30;13.40;;;3.40;;
25409;SDS011;13339;50.840;4.346;2023-07-13T08:25:56;11.87;;;3.83;;
25409;SDS011;13339;50.840;4.346;2023-07-13T08:28:22;10.00;;;3.37;;
25409;SDS011;13339;50.840;4.346;2023-07-13T08:30:47;10.67;;;3.57;;
25409;SDS011;13339;50.840;4.346;2023-07-13T08:33:15;8.17;;;3.43;;
25409;SDS011;13339;50.840;4.346;2023-07-13T08:35:42;13.37;;;3.27;;
25409;SDS011;13339;50.840;4.346;2023-07-13T08:38:10;10.03;;;3.27;;
25409;SDS011;13339;50.840;4.346;2023-07-13T08:40:35;14.90;;;3.47;;
25409;SDS011;13339;50.840;4.346;2023-07-13T08:43:01;11.90;;;3.20;;
25409;SDS011;13339;50.840;4.346;2023-07-13T08:48:14;17.27;;;3.27;;
25409;SDS011;13339;50.840;4.346;2023-07-13T08:51:02;11.53;;;3.83;;
25409;SDS011;13339;50.840;4.346;2023-07-13T08:53:40;10.20;;;3.47;;
25409;SDS011;13339;50.840;4.346;2023-07-13T08:56:19;13.63;;;3.50;;
25409;SDS011;13339;50.840;4.346;2023-07-13T08:58:49;9.63;;;3.47;;
25409;SDS011;13339;50.840;4.346;2023-07-13T09:04:23;11.20;;;3.60;;
25409;SDS011;13339;50.840;4.346;2023-07-13T09:07:06;12.57;;;3.40;;
25409;SDS011;13339;50.840;4.346;2023-07-13T09:21:10;9.57;;;3.43;;
25409;SDS011;13339;50.840;4.346;2023-07-13T09:23:37;10.53;;;3.03;;
25409;SDS011;13339;50.840;4.346;2023-07-13T09:26:04;11.20;;;3.10;;
25409;SDS011;13339;50.840;4.346;2023-07-13T09:28:40;10.83;;;3.13;;
25409;SDS011;13339;50.840;4.346;2023-07-13T09:31:13;11.17;;;2.93;;
25409;SDS011;13339;50.840;4.346;2023-07-13T09:33:47;11.53;;;3.30;;
25409;SDS011;13339;50.840;4.346;2023-07-13T09:36:17;12.77;;;3.33;;
25409;SDS011;13339;50.840;4.346;2023-07-13T09:44:16;9.53;;;3.83;;
25409;SDS011;13339;50.840;4.346;2023-07-13T09:46:47;12.33;;;3.10;;
25409;SDS011;13339;50.840;4.346;2023-07-13T09:49:18;12.10;;;3.27;;
25409;SDS011;13339;50.840;4.346;2023-07-13T09:51:44;12.13;;;3.13;;
25409;SDS011;13339;50.840;4.346;2023-07-13T09:54:17;12.27;;;3.43;;
25409;SDS011;13339;50.840;4.346;2023-07-13T09:56:44;12.37;;;4.23;;
25409;SDS011;13339;50.840;4.346;2023-07-13T09:59:19;13.47;;;3.50;;
25409;SDS011;13339;50.840;4.346;2023-07-13T10:01:47;7.80;;;2.83;;
25409;SDS011;13339;50.840;4.346;2023-07-13T10:04:17;7.53;;;3.00;;
25409;SDS011;13339;50.840;4.346;2023-07-13T10:06:44;11.30;;;3.10;;
25409;SDS011;13339;50.840;4.346;2023-07-13T10:09:13;11.30;;;2.47;;
25409;SDS011;13339;50.840;4.346;2023-07-13T10:11:41;3.20;;;2.33;;
25409;SDS011;13339;50.840;4.346;2023-07-13T10:14:11;6.33;;;2.37;;
25409;SDS011;13339;50.840;4.346;2023-07-13T10:16:41;10.70;;;2.77;;
25409;SDS011;13339;50.840;4.346;2023-07-13T10:19:14;6.90;;;2.87;;
25409;SDS011;13339;50.840;4.346;2023-07-13T10:21:53;7.63;;;2.97;;
25409;SDS011;13339;50.840;4.346;2023-07-13T10:24:27;8.57;;;2.93;;
25409;SDS011;13339;50.840;4.346;2023-07-13T10:27:01;9.87;;;2.43;;
25409;SDS011;13339;50.840;4.346;2023-07-13T10:29:48;9.23;;;3.13;;
25409;SDS011;13339;50.840;4.346;2023-07-13T10:32:35;15.10;;;2.90;;
25409;SDS011;13339;50.840;4.346;2023-07-13T10:35:01;10.13;;;2.67;;
25409;SDS011;13339;50.840;4.346;2023-07-13T10:37:33;7.60;;;2.40;;
25409;SDS011;13339;50.840;4.346;2023-07-13T10:40:14;13.80;;;2.97;;
25409;SDS011;13339;50.840;4.346;2023-07-13T10:42:45;9.53;;;2.43;;
25409;SDS011;13339;50.840;4.346;2023-07-13T10:45:20;7.83;;;2.70;;
25409;SDS011;13339;50.840;4.346;2023-07-13T10:47:47;10.43;;;3.40;;
25409;SDS011;13339;50.840;4.346;2023-07-13T10:50:22;12.43;;;3.13;;
25409;SDS011;13339;50.840;4.346;2023-07-13T10:53:17;7.93;;;2.73;;
25409;SDS011;13339;50.840;4.346;2023-07-13T10:55:58;10.20;;;2.83;;
25409;SDS011;13339;50.840;4.346;2023-07-13T10:58:33;9.03;;;3.07;;
25409;SDS011;13339;50.840;4.346;2023-07-13T11:03:39;7.63;;;2.80;;
25409;SDS011;13339;50.840;4.346;2023-07-13T11:16:45;12.70;;;2.43;;
25409;SDS011;13339;50.840;4.346;2023-07-13T11:27:22;11.67;;;2.60;;
25409;SDS011;13339;50.840;4.346;2023-07-13T11:30:07;6.87;;;2.50;;
25409;SDS011;13339;50.840;4.346;2023-07-13T11:32:51;8.20;;;2.53;;
25409;SDS011;13339;50.840;4.346;2023-07-13T11:35:30;9.67;;;2.77;;
25409;SDS011;13339;50.840;4.346;2023-07-13T11:38:00;8.87;;;2.83;;
25409;SDS011;13339;50.840;4.346;2023-07-13T11:40:27;6.43;;;2.27;;
25409;SDS011;13339;50.840;4.346;2023-07-13T11:43:04;5.57;;;2.03;;
25409;SDS011;13339;50.840;4.346;2023-07-13T11:45:32;7.00;;;2.00;;
25409;SDS011;13339;50.840;4.346;2023-07-13T11:47:58;5.37;;;2.40;;
25409;SDS011;13339;50.840;4.346;2023-07-13T11:50:25;11.17;;;2.80;;
25409;SDS011;13339;50.840;4.346;2023-07-13T11:52:52;7.57;;;2.83;;
25409;SDS011;13339;50.840;4.346;2023-07-13T11:55:23;5.00;;;2.57;;
25409;SDS011;13339;50.840;4.346;2023-07-13T11:58:00;7.47;;;2.40;;
25409;SDS011;13339;50.840;4.346;2023-07-13T12:00:28;8.43;;;2.63;;
25409;SDS011;13339;50.840;4.346;2023-07-13T12:02:58;5.67;;;2.20;;
25409;SDS011;13339;50.840;4.346;2023-07-13T12:05:25;6.13;;;2.40;;
25409;SDS011;13339;50.840;4.346;2023-07-13T12:07:52;6.00;;;2.17;;
25409;SDS011;13339;50.840;4.346;2023-07-13T12:10:29;10.47;;;2.50;;
25409;SDS011;13339;50.840;4.346;2023-07-13T12:12:58;4.07;;;2.27;;
25409;SDS011;13339;50.840;4.346;2023-07-13T12:15:43;4.70;;;2.33;;
25409;SDS011;13339;50.840;4.346;2023-07-13T12:18:15;6.43;;;2.40;;
25409;SDS011;13339;50.840;4.346;2023-07-13T12:20:44;6.67;;;2.40;;
25409;SDS011;13339;50.840;4.346;2023-07-13T12:23:32;7.63;;;2.30;;
25409;SDS011;13339;50.840;4.346;2023-07-13T12:26:02;4.67;;;2.40;;
25409;SDS011;13339;50.840;4.346;2023-07-13T12:28:31;3.40;;;1.33;;
25409;SDS011;13339;50.840;4.346;2023-07-13T12:31:02;8.73;;;2.20;;
25409;SDS011;13339;50.840;4.346;2023-07-13T12:33:33;5.93;;;1.70;;
25409;SDS011;13339;50.840;4.346;2023-07-13T12:36:03;3.33;;;1.90;;
25409;SDS011;13339;50.840;4.346;2023-07-13T12:38:31;6.97;;;2.50;;
25409;SDS011;13339;50.840;4.346;2023-07-13T12:41:00;5.83;;;2.60;;
25409;SDS011;13339;50.840;4.346;2023-07-13T12:43:28;6.83;;;2.47;;
25409;SDS011;13339;50.840;4.346;2023-07-13T12:46:03;4.07;;;2.10;;
25409;SDS011;13339;50.840;4.346;2023-07-13T12:48:38;5.10;;;2.97;;
25409;SDS011;13339;50.840;4.346;2023-07-13T12:51:11;4.93;;;2.60;;
25409;SDS011;13339;50.840;4.346;2023-07-13T12:53:42;6.10;;;3.10;;
25409;SDS011;13339;50.840;4.346;2023-07-13T12:56:16;6.37;;;2.40;;
25409;SDS011;13339;50.840;4.346;2023-07-13T12:58:46;4.90;;;2.40;;
25409;SDS011;13339;50.840;4.346;2023-07-13T13:01:15;4.37;;;2.80;;
25409;SDS011;13339;50.840;4.346;2023-07-13T13:03:45;8.17;;;2.83;;
25409;SDS011;13339;50.840;4.346;2023-07-13T13:08:43;5.33;;;2.63;;
25409;SDS011;13339;50.840;4.346;2023-07-13T13:11:14;6.07;;;2.80;;
25409;SDS011;13339;50.840;4.346;2023-07-13T13:13:42;4.87;;;3.27;;
25409;SDS011;13339;50.840;4.346;2023-07-13T13:18:42;7.20;;;3.10;;
25409;SDS011;13339;50.840;4.346;2023-07-13T13:21:08;6.03;;;3.03;;
25409;SDS011;13339;50.840;4.346;2023-07-13T13:23:34;11.40;;;3.43;;
25409;SDS011;13339;50.840;4.346;2023-07-13T13:26:00;4.60;;;2.93;;
25409;SDS011;13339;50.840;4.346;2023-07-13T13:28:26;5.77;;;3.03;;
25409;SDS011;13339;50.840;4.346;2023-07-13T13:30:52;5.23;;;2.77;;
25409;SDS011;13339;50.840;4.346;2023-07-13T13:33:19;5.37;;;3.00;;
25409;SDS011;13339;50.840;4.346;2023-07-13T13:35:46;3.37;;;2.30;;
25409;SDS011;13339;50.840;4.346;2023-07-13T13:38:13;4.80;;;2.70;;
25409;SDS011;13339;50.840;4.346;2023-07-13T13:40:40;3.73;;;2.40;;
25409;SDS011;13339;50.840;4.346;2023-07-13T13:43:17;5.80;;;2.40;;
25409;SDS011;13339;50.840;4.346;2023-07-13T13:45:43;3.50;;;2.00;;
25409;SDS011;13339;50.840;4.346;2023-07-13T13:48:14;7.53;;;2.17;;
25409;SDS011;13339;50.840;4.346;2023-07-13T13:50:44;4.13;;;1.80;;
25409;SDS011;13339;50.840;4.346;2023-07-13T13:53:10;5.93;;;2.20;;
25409;SDS011;13339;50.840;4.346;2023-07-13T13:55:38;5.70;;;2.30;;
25409;SDS011;13339;50.840;4.346;2023-07-13T13:58:04;3.50;;;2.20;;
25409;SDS011;13339;50.840;4.346;2023-07-13T14:00:29;4.67;;;2.50;;
25409;SDS011;13339;50.840;4.346;2023-07-13T14:02:55;5.30;;;2.23;;
25409;SDS011;13339;50.840;4.346;2023-07-13T14:05:23;4.70;;;2.03;;
25409;SDS011;13339;50.840;4.346;2023-07-13T14:07:53;6.77;;;2.20;;
25409;SDS011;13339;50.840;4.346;2023-07-13T14:10:20;4.80;;;1.93;;
25409;SDS011;13339;50.840;4.346;2023-07-13T14:12:47;5.70;;;2.50;;
25409;SDS011;13339;50.840;4.346;2023-07-13T14:15:26;8.83;;;2.60;;
25409;SDS011;13339;50.840;4.346;2023-07-13T14:17:53;4.60;;;2.43;;
25409;SDS011;13339;50.840;4.346;2023-07-13T14:20:20;6.47;;;2.70;;
25409;SDS011;13339;50.840;4.346;2023-07-13T14:22:49;7.47;;;2.93;;
25409;SDS011;13339;50.840;4.346;2023-07-13T14:25:15;4.80;;;2.47;;
25409;SDS011;13339;50.840;4.346;2023-07-13T14:27:42;4.57;;;2.30;;
25409;SDS011;13339;50.840;4.346;2023-07-13T14:30:13;7.50;;;2.53;;
25409;SDS011;13339;50.840;4.346;2023-07-13T14:32:39;7.63;;;2.43;;
25409;SDS011;13339;50.840;4.346;2023-07-13T14:35:12;5.90;;;2.40;;
25409;SDS011;13339;50.840;4.346;2023-07-13T14:37:39;5.50;;;2.27;;
25409;SDS011;13339;50.840;4.346;2023-07-13T14:40:48;6.10;;;2.30;;
25409;SDS011;13339;50.840;4.346;2023-07-13T14:42:56;5.20;;;1.83;;
25409;SDS011;13339;50.840;4.346;2023-07-13T14:45:22;5.73;;;2.23;;
25409;SDS011;13339;50.840;4.346;2023-07-13T14:47:49;5.10;;;2.00;;
25409;SDS011;13339;50.840;4.346;2023-07-13T14:50:16;3.87;;;2.23;;
25409;SDS011;13339;50.840;4.346;2023-07-13T14:52:46;7.80;;;2.50;;
25409;SDS011;13339;50.840;4.346;2023-07-13T14:55:13;5.50;;;2.40;;
25409;SDS011;13339;50.840;4.346;2023-07-13T14:57:41;5.70;;;2.37;;
25409;SDS011;13339;50.840;4.346;2023-07-13T15:00:18;5.30;;;2.40;;
25409;SDS011;13339;50.840;4.346;2023-07-13T15:02:52;2.53;;;1.80;;
25409;SDS011;13339;50.840;4.346;2023-07-13T15:05:24;5.50;;;2.10;;
25409;SDS011;13339;50.840;4.346;2023-07-13T15:07:52;4.83;;;2.20;;
25409;SDS011;13339;50.840;4.346;2023-07-13T15:12:46;3.60;;;2.07;;
25409;SDS011;13339;50.840;4.346;2023-07-13T15:15:11;5.60;;;2.47;;
25409;SDS011;13339;50.840;4.346;2023-07-13T15:17:39;5.70;;;2.30;;
25409;SDS011;13339;50.840;4.346;2023-07-13T15:20:12;7.97;;;2.45;;
25409;SDS011;13339;50.840;4.346;2023-07-13T15:22:43;4.50;;;2.50;;
25409;SDS011;13339;50.840;4.346;2023-07-13T15:25:18;4.43;;;2.10;;
25409;SDS011;13339;50.840;4.346;2023-07-13T15:27:45;5.97;;;2.30;;
25409;SDS011;13339;50.840;4.346;2023-07-13T15:30:11;9.23;;;2.67;;
25409;SDS011;13339;50.840;4.346;2023-07-13T15:32:38;4.05;;;2.08;;
25409;SDS011;13339;50.840;4.346;2023-07-13T15:35:04;6.47;;;2.47;;
25409;SDS011;13339;50.840;4.346;2023-07-13T15:37:36;6.03;;;2.50;;